Time;durP1;ratioP1;P1;durP2;ratioP2;P2;SDS_P1;SDS_P2;PMS_P1;PMS_P2;Temp;Humidity;BMP_temperature;BMP_pressure;BME280_temperature;BME280_humidity;BME280_pressure;Samples;Min_cycle;Max_cycle;Signal;HPM_P1;HPM_P2
2021/07/18 00:01:48;;;;;;;7.30;3.60;;;18.80;99.90;;;;;;4955937;28;20420;-72
2021/07/18 00:04:14;;;;;;;6.03;3.45;;;18.80;99.80;;;;;;4955391;29;20046;-72
2021/07/18 00:06:41;;;;;;;6.30;3.35;;;18.70;99.70;;;;;;4955935;29;20049;-72
2021/07/18 00:09:07;;;;;;;5.88;3.17;;;18.70;99.90;;;;;;4956020;28;20050;-73
2021/07/18 00:11:33;;;;;;;6.55;4.38;;;18.60;99.90;;;;;;4949533;29;20382;-73
2021/07/18 00:13:59;;;;;;;6.50;3.58;;;18.60;99.90;;;;;;4954498;29;20419;-76
2021/07/18 00:16:26;;;;;;;7.90;3.80;;;18.50;99.90;;;;;;4956475;29;20036;-73
2021/07/18 00:18:52;;;;;;;7.07;4.38;;;18.50;99.90;;;;;;4952993;29;20389;-73
2021/07/18 00:21:19;;;;;;;7.47;4.15;;;18.40;99.90;;;;;;4958947;29;20031;-73
2021/07/18 00:23:45;;;;;;;5.63;3.80;;;18.40;99.90;;;;;;4959095;29;20042;-74
2021/07/18 00:26:11;;;;;;;9.02;4.30;;;18.30;99.90;;;;;;4956462;29;20058;-72
2021/07/18 00:28:37;;;;;;;9.02;4.00;;;18.20;99.90;;;;;;4939941;28;20047;-74
2021/07/18 00:31:04;;;;;;;8.30;3.25;;;18.20;99.90;;;;;;4954930;29;20034;-73
2021/07/18 00:33:30;;;;;;;6.38;3.70;;;18.10;99.90;;;;;;4956724;28;20047;-74
2021/07/18 00:35:56;;;;;;;6.03;3.50;;;18.00;99.90;;;;;;4955901;29;20031;-74
2021/07/18 00:38:22;;;;;;;7.75;3.97;;;18.00;99.90;;;;;;4924146;29;20059;-74
2021/07/18 00:40:49;;;;;;;6.03;3.22;;;17.90;99.90;;;;;;4955521;29;20465;-74
2021/07/18 00:43:15;;;;;;;7.45;4.18;;;17.90;99.90;;;;;;4955713;28;20051;-74
2021/07/18 00:45:42;;;;;;;7.63;4.20;;;17.70;99.90;;;;;;4955634;29;20034;-73
2021/07/18 00:48:08;;;;;;;6.28;4.25;;;17.60;99.90;;;;;;4955836;29;20048;-73
2021/07/18 00:50:34;;;;;;;8.77;4.78;;;17.50;99.90;;;;;;4952088;29;20031;-74
2021/07/18 00:53:00;;;;;;;10.80;5.30;;;17.50;99.90;;;;;;4947548;29;20031;-73
2021/07/18 00:55:27;;;;;;;9.35;4.75;;;17.40;99.90;;;;;;4943795;29;20031;-73
2021/07/18 00:57:53;;;;;;;8.57;4.68;;;17.30;99.90;;;;;;4941130;29;20046;-75
2021/07/18 01:00:20;;;;;;;7.38;4.55;;;17.30;99.90;;;;;;4955707;29;20385;-73
2021/07/18 01:02:46;;;;;;;8.35;4.85;;;17.20;99.90;;;;;;4955189;29;20104;-72
2021/07/18 01:05:14;;;;;;;7.88;4.20;;;17.20;99.90;;;;;;4955551;29;20039;-73
2021/07/18 01:07:40;;;;;;;6.88;3.85;;;17.10;99.90;;;;;;4956043;29;20039;-74
2021/07/18 01:10:09;;;;;;;8.30;4.70;;;17.10;99.90;;;;;;4956027;29;20032;-73
2021/07/18 01:12:35;;;;;;;9.15;5.38;;;17.10;99.90;;;;;;4956598;29;20055;-73
2021/07/18 01:15:03;;;;;;;8.38;4.78;;;17.10;99.90;;;;;;4954962;29;20028;-73
2021/07/18 01:17:29;;;;;;;7.00;4.45;;;17.00;99.90;;;;;;4937220;29;20047;-73
2021/07/18 01:19:56;;;;;;;7.75;4.18;;;17.10;99.90;;;;;;4936505;29;20382;-73
2021/07/18 01:22:22;;;;;;;7.95;4.10;;;17.00;99.90;;;;;;4965723;28;20043;-74
2021/07/18 01:24:48;;;;;;;8.15;4.20;;;17.00;99.90;;;;;;4954247;28;20039;-73
2021/07/18 01:27:15;;;;;;;6.28;3.67;;;17.00;99.90;;;;;;4955161;28;20382;-73
2021/07/18 01:29:41;;;;;;;9.07;4.20;;;16.90;99.90;;;;;;4954821;29;20031;-73
2021/07/18 01:32:08;;;;;;;7.20;4.32;;;16.80;99.90;;;;;;4953908;29;20035;-73
2021/07/18 01:34:34;;;;;;;10.55;4.43;;;16.80;99.90;;;;;;4968447;28;20473;-76
2021/07/18 01:37:00;;;;;;;9.73;4.65;;;16.60;99.90;;;;;;4953686;29;20413;-73
2021/07/18 01:39:26;;;;;;;7.88;5.00;;;16.60;99.90;;;;;;4945104;29;20032;-74
2021/07/18 01:41:57;;;;;;;6.03;4.28;;;16.50;99.90;;;;;;4947069;29;20035;-73
2021/07/18 01:44:23;;;;;;;;;;;16.40;99.90;;;;;;4955295;29;20039;-74
2021/07/18 01:46:51;;;;;;;7.38;3.58;;;16.40;99.90;;;;;;4954664;29;19918;-73
2021/07/18 01:49:17;;;;;;;5.80;3.47;;;16.30;99.90;;;;;;4954683;28;20039;-73
2021/07/18 01:51:43;;;;;;;8.10;4.32;;;16.30;99.90;;;;;;4953835;29;20031;-73
2021/07/18 01:54:11;;;;;;;10.15;4.50;;;16.20;99.90;;;;;;4954136;29;20042;-73
2021/07/18 01:56:38;;;;;;;7.32;3.75;;;16.20;99.90;;;;;;4953584;29;20504;-73
2021/07/18 01:59:04;;;;;;;9.75;4.15;;;16.20;99.90;;;;;;4945127;29;20035;-74
2021/07/18 02:01:32;;;;;;;6.10;3.17;;;16.30;99.90;;;;;;4941008;29;20031;-74
2021/07/18 02:04:00;;;;;;;4.85;2.70;;;16.30;99.90;;;;;;4954181;29;20031;-73
2021/07/18 02:06:28;;;;;;;11.60;3.70;;;16.30;99.90;;;;;;4954511;29;20042;-73
2021/07/18 02:08:56;;;;;;;7.55;3.38;;;16.30;99.90;;;;;;4953959;29;20164;-73
2021/07/18 02:11:23;;;;;;;9.60;2.72;;;16.20;99.90;;;;;;4938699;29;20121;-73
2021/07/18 02:13:52;;;;;;;7.40;2.85;;;16.20;99.90;;;;;;4948534;29;20465;-72
2021/07/18 02:16:19;;;;;;;9.93;2.92;;;16.20;99.90;;;;;;4954258;29;20031;-73
2021/07/18 02:18:47;;;;;;;7.03;3.35;;;16.10;99.90;;;;;;4952652;29;20047;-73
2021/07/18 02:21:15;;;;;;;6.57;3.33;;;16.00;99.90;;;;;;4954253;29;20051;-73
2021/07/18 02:23:41;;;;;;;5.47;2.80;;;15.90;99.90;;;;;;4953657;29;20035;-74
2021/07/18 02:26:07;;;;;;;7.15;3.00;;;15.90;99.90;;;;;;4952948;29;20046;-74
2021/07/18 02:28:33;;;;;;;6.07;2.85;;;15.80;99.90;;;;;;4946668;29;20055;-74
2021/07/18 02:31:04;;;;;;;7.28;3.45;;;15.80;99.90;;;;;;4962429;29;20031;-74
2021/07/18 02:33:31;;;;;;;4.07;2.90;;;15.80;99.90;;;;;;4963390;29;20385;-74
2021/07/18 02:35:59;;;;;;;8.55;3.50;;;15.80;99.90;;;;;;4952387;29;20035;-73
2021/07/18 02:38:27;;;;;;;7.75;2.83;;;15.80;99.90;;;;;;4947170;28;20079;-73
2021/07/18 02:40:54;;;;;;;7.20;2.80;;;15.80;99.90;;;;;;4940869;29;20062;-74
2021/07/18 02:43:20;;;;;;;5.05;2.42;;;15.70;99.90;;;;;;4950221;29;20493;-73
2021/07/18 02:45:46;;;;;;;7.90;3.25;;;15.80;99.90;;;;;;4935920;29;20036;-73
2021/07/18 02:48:13;;;;;;;7.18;2.63;;;15.70;99.90;;;;;;4949662;28;20051;-73
2021/07/18 02:50:39;;;;;;;5.32;2.35;;;15.70;99.90;;;;;;4953077;29;20046;-74
2021/07/18 02:53:06;;;;;;;5.38;2.70;;;15.70;99.90;;;;;;4943756;29;20381;-75
2021/07/18 02:55:32;;;;;;;6.82;2.60;;;15.60;99.90;;;;;;4947680;29;20370;-74
2021/07/18 02:57:58;;;;;;;5.65;2.90;;;15.50;99.90;;;;;;4952132;29;20048;-74
2021/07/18 03:00:26;;;;;;;6.28;3.30;;;15.40;99.90;;;;;;4953830;29;20039;-75
2021/07/18 03:02:52;;;;;;;7.97;3.13;;;15.40;99.90;;;;;;4953286;28;20039;-74
2021/07/18 03:05:19;;;;;;;10.88;3.15;;;15.30;99.90;;;;;;4949332;29;20027;-71
2021/07/18 03:07:46;;;;;;;7.07;2.72;;;15.30;99.90;;;;;;4936748;29;20044;-74
2021/07/18 03:10:16;;;;;;;6.75;2.53;;;15.20;99.90;;;;;;4953145;28;20374;-75
2021/07/18 03:12:42;;;;;;;6.90;3.03;;;15.20;99.90;;;;;;4953417;28;20047;-75
2021/07/18 03:15:10;;;;;;;7.45;3.08;;;15.20;99.90;;;;;;4953294;29;20388;-74
2021/07/18 03:17:37;;;;;;;8.48;3.53;;;15.10;99.90;;;;;;4948832;29;20047;-75
2021/07/18 03:20:09;;;;;;;4.90;2.97;;;15.00;99.90;;;;;;4935269;29;20024;-74
2021/07/18 03:22:36;;;;;;;9.43;2.80;;;14.90;99.90;;;;;;4952312;28;20052;-74
2021/07/18 03:25:04;;;;;;;6.32;3.20;;;14.90;99.90;;;;;;4952575;29;20461;-74
2021/07/18 03:27:30;;;;;;;5.72;3.65;;;14.80;99.90;;;;;;4953418;29;20066;-75
2021/07/18 03:29:56;;;;;;;5.50;2.92;;;14.70;99.90;;;;;;4953536;28;20481;-74
2021/07/18 03:32:23;;;;;;;7.18;3.10;;;14.70;99.90;;;;;;4953256;29;20034;-74
2021/07/18 03:34:49;;;;;;;6.03;3.03;;;14.70;99.90;;;;;;4953512;29;20358;-75
2021/07/18 03:37:16;;;;;;;6.28;3.58;;;14.70;99.90;;;;;;4940955;28;20413;-75
2021/07/18 03:39:42;;;;;;;6.07;3.65;;;14.60;99.90;;;;;;4948554;29;20035;-75
2021/07/18 03:42:09;;;;;;;6.25;3.20;;;14.60;99.90;;;;;;4952899;29;20050;-74
2021/07/18 03:44:36;;;;;;;5.30;3.13;;;14.50;99.90;;;;;;4953120;29;20027;-74
2021/07/18 03:47:03;;;;;;;5.40;3.30;;;14.50;99.90;;;;;;4945000;29;20497;-74
2021/07/18 03:49:29;;;;;;;7.72;3.50;;;14.50;99.90;;;;;;4945131;29;20484;-73
2021/07/18 03:51:55;;;;;;;6.75;4.03;;;14.50;99.90;;;;;;4952759;29;20464;-73
2021/07/18 03:54:21;;;;;;;8.00;3.30;;;14.50;99.90;;;;;;4953060;29;20039;-74
2021/07/18 03:56:48;;;;;;;6.95;3.58;;;14.50;99.90;;;;;;4952502;29;20059;-72
2021/07/18 03:59:14;;;;;;;5.53;3.13;;;14.40;99.90;;;;;;4952686;28;20055;-74
2021/07/18 04:01:41;;;;;;;6.50;2.97;;;14.50;99.90;;;;;;4952579;28;20051;-74
2021/07/18 04:04:07;;;;;;;11.95;3.53;;;14.60;99.90;;;;;;4955664;29;20477;-74
2021/07/18 04:06:33;;;;;;;6.78;3.40;;;14.70;99.90;;;;;;4958146;29;20031;-74
2021/07/18 04:08:59;;;;;;;7.15;3.78;;;14.70;99.90;;;;;;4957242;29;20046;-74
2021/07/18 04:11:25;;;;;;;5.05;2.92;;;14.70;99.90;;;;;;4952935;28;20050;-74
2021/07/18 04:13:52;;;;;;;7.18;3.10;;;14.80;99.90;;;;;;4954122;28;20058;-74
2021/07/18 04:16:18;;;;;;;8.43;3.05;;;14.80;99.90;;;;;;4952258;29;20031;-74
2021/07/18 04:18:44;;;;;;;6.10;3.13;;;14.90;99.90;;;;;;4949554;29;20039;-74
2021/07/18 04:21:11;;;;;;;9.05;3.13;;;15.00;99.90;;;;;;4956705;29;20039;-74
2021/07/18 04:23:37;;;;;;;6.03;3.25;;;15.00;99.90;;;;;;4958816;28;20059;-77
2021/07/18 04:26:04;;;;;;;4.93;2.80;;;15.00;99.90;;;;;;4964013;28;20047;-74
2021/07/18 04:28:30;;;;;;;8.45;2.78;;;15.10;99.90;;;;;;4956984;28;20066;-74
2021/07/18 04:30:56;;;;;;;6.78;3.10;;;15.20;99.90;;;;;;4938363;28;20047;-74
2021/07/18 04:33:22;;;;;;;6.32;2.63;;;15.30;99.90;;;;;;4940946;29;20357;-73
2021/07/18 04:35:48;;;;;;;9.27;2.40;;;15.30;99.90;;;;;;4946275;29;20358;-74
2021/07/18 04:38:14;;;;;;;10.93;2.58;;;15.60;99.90;;;;;;4955126;29;20039;-74
2021/07/18 04:40:41;;;;;;;5.32;2.20;;;16.00;99.90;;;;;;4954881;29;20027;-73
2021/07/18 04:43:07;;;;;;;7.22;2.40;;;16.30;99.90;;;;;;4956282;29;20031;-74
2021/07/18 04:45:33;;;;;;;4.80;1.95;;;16.60;99.90;;;;;;4942473;29;20039;-74
2021/07/18 04:47:59;;;;;;;4.60;2.10;;;16.90;99.90;;;;;;4946478;29;20054;-74
2021/07/18 04:50:27;;;;;;;3.80;1.77;;;17.10;99.90;;;;;;4938286;29;20044;-75
2021/07/18 04:52:54;;;;;;;4.32;2.17;;;17.30;99.90;;;;;;4937762;29;20036;-74
2021/07/18 04:55:20;;;;;;;3.38;1.80;;;17.50;99.90;;;;;;4938326;29;20047;-75
2021/07/18 04:57:47;;;;;;;3.30;1.83;;;17.60;99.90;;;;;;4948523;29;20421;-76
2021/07/18 05:00:16;;;;;;;4.85;1.85;;;17.60;99.90;;;;;;4956564;29;20035;-74
2021/07/18 05:02:42;;;;;;;6.55;1.77;;;17.50;99.90;;;;;;4946716;29;20042;-74
2021/07/18 05:05:13;;;;;;;4.30;1.77;;;17.40;99.90;;;;;;4937659;29;20036;-73
2021/07/18 05:07:56;;;;;;;;;;;17.30;99.90;;;;;;4938224;29;20039;-75
2021/07/18 05:10:24;;;;;;;4.75;1.83;;;17.40;99.90;;;;;;4952116;29;19910;-73
2021/07/18 05:12:53;;;;;;;7.40;2.35;;;17.70;99.90;;;;;;4954672;29;20035;-73
2021/07/18 05:15:20;;;;;;;4.18;1.90;;;17.80;99.90;;;;;;4955454;28;20047;-73
2021/07/18 05:17:47;;;;;;;4.95;1.90;;;17.80;99.90;;;;;;4954569;29;20035;-74
2021/07/18 05:20:14;;;;;;;4.45;2.42;;;18.00;99.90;;;;;;4943414;29;20054;-74
2021/07/18 05:22:41;;;;;;;3.25;1.77;;;18.20;99.90;;;;;;4945966;29;20047;-74
2021/07/18 05:25:09;;;;;;;5.47;1.65;;;18.50;99.90;;;;;;4944514;29;20035;-73
2021/07/18 05:27:37;;;;;;;5.53;2.13;;;18.20;99.90;;;;;;4954017;28;20039;-74
2021/07/18 05:30:09;;;;;;;4.53;2.00;;;18.30;99.90;;;;;;4954408;29;20038;-75
2021/07/18 05:32:36;;;;;;;3.75;1.98;;;18.70;99.90;;;;;;4954625;29;20381;-74
2021/07/18 05:35:06;;;;;;;3.80;2.00;;;19.30;99.90;;;;;;4954640;29;20031;-75
2021/07/18 05:37:33;;;;;;;3.33;1.77;;;19.20;99.90;;;;;;4954120;29;20054;-74
2021/07/18 05:39:59;;;;;;;3.25;1.52;;;19.20;99.90;;;;;;4955790;28;20375;-74
2021/07/18 05:42:25;;;;;;;3.35;1.50;;;19.40;99.70;;;;;;4954956;29;20038;-74
2021/07/18 05:44:51;;;;;;;5.50;1.52;;;19.20;99.70;;;;;;4953468;29;20031;-74
2021/07/18 05:47:18;;;;;;;3.63;1.70;;;19.40;99.60;;;;;;4953445;29;20031;-74
2021/07/18 05:49:44;;;;;;;5.70;1.88;;;19.40;99.50;;;;;;4953640;28;20466;-74
2021/07/18 05:52:10;;;;;;;3.70;1.30;;;19.90;98.50;;;;;;4954646;28;20038;-74
2021/07/18 05:54:38;;;;;;;5.07;1.67;;;19.50;98.60;;;;;;4943441;29;20032;-74
2021/07/18 05:57:05;;;;;;;6.13;1.80;;;19.50;98.40;;;;;;4939691;29;20409;-72
2021/07/18 05:59:31;;;;;;;4.18;1.50;;;19.80;98.60;;;;;;4954678;29;20477;-74
2021/07/18 06:01:57;;;;;;;3.47;1.90;;;20.40;97.40;;;;;;4953884;29;20048;-73
2021/07/18 06:04:24;;;;;;;3.17;1.35;;;21.20;96.00;;;;;;4954493;29;20047;-75
2021/07/18 06:06:51;;;;;;;5.45;1.42;;;20.80;96.30;;;;;;4939923;29;20027;-75
2021/07/18 06:09:17;;;;;;;6.00;1.55;;;20.50;96.30;;;;;;4954546;29;20040;-73
2021/07/18 06:11:44;;;;;;;6.95;1.27;;;20.10;96.60;;;;;;4954023;28;20070;-74
2021/07/18 06:14:10;;;;;;;3.95;1.20;;;20.00;97.20;;;;;;4954399;29;20042;-74
2021/07/18 06:16:36;;;;;;;5.00;1.40;;;20.20;97.20;;;;;;4953255;29;20043;-74
2021/07/18 06:19:02;;;;;;;3.38;1.60;;;20.60;95.80;;;;;;4953827;29;20094;-74
2021/07/18 06:21:29;;;;;;;5.00;1.35;;;20.70;96.20;;;;;;4953750;29;20039;-74
2021/07/18 06:23:55;;;;;;;4.13;1.27;;;20.80;96.30;;;;;;4943448;29;20027;-73
2021/07/18 06:26:21;;;;;;;4.07;1.70;;;21.70;94.30;;;;;;4947658;29;20035;-73
2021/07/18 06:28:47;;;;;;;4.78;1.40;;;21.70;94.00;;;;;;4936229;29;20468;-74
2021/07/18 06:31:13;;;;;;;4.32;1.35;;;21.90;93.50;;;;;;4950622;29;20490;-74
2021/07/18 06:33:40;;;;;;;7.00;1.58;;;21.40;94.20;;;;;;4939703;29;20023;-74
2021/07/18 06:36:06;;;;;;;4.70;1.80;;;21.30;94.20;;;;;;4950180;28;20039;-73
2021/07/18 06:38:35;;;;;;;3.85;1.40;;;21.10;94.40;;;;;;4946322;29;20055;-73
2021/07/18 06:41:02;;;;;;;3.22;1.30;;;21.60;92.90;;;;;;4943365;29;20035;-74
2021/07/18 06:43:29;;;;;;;4.65;1.63;;;21.90;92.70;;;;;;4944886;29;20042;-74
2021/07/18 06:45:56;;;;;;;3.05;1.30;;;23.00;91.00;;;;;;4953491;29;20358;-74
2021/07/18 06:48:22;;;;;;;4.03;1.70;;;23.00;90.20;;;;;;4953563;29;20365;-75
2021/07/18 06:50:48;;;;;;;4.65;1.50;;;22.20;91.70;;;;;;4952708;29;20046;-73
2021/07/18 06:53:14;;;;;;;3.55;1.20;;;22.30;90.80;;;;;;4942263;29;20050;-75
2021/07/18 06:55:41;;;;;;;6.03;1.10;;;22.90;90.20;;;;;;4951856;29;20055;-74
2021/07/18 06:58:07;;;;;;;4.25;1.60;;;22.60;89.30;;;;;;4947226;28;20039;-74
2021/07/18 07:00:33;;;;;;;2.80;1.15;;;22.40;89.60;;;;;;4941600;28;20058;-74
2021/07/18 07:02:59;;;;;;;2.33;1.05;;;23.10;87.70;;;;;;4961310;29;20046;-73
2021/07/18 07:05:26;;;;;;;4.25;1.17;;;22.80;87.60;;;;;;4971156;29;20049;-73
2021/07/18 07:07:52;;;;;;;5.20;1.33;;;22.60;89.80;;;;;;4957736;28;20051;-73
2021/07/18 07:10:19;;;;;;;4.10;1.13;;;22.60;88.70;;;;;;4953727;29;20054;-72
2021/07/18 07:12:47;;;;;;;3.40;1.10;;;23.70;85.60;;;;;;4941238;29;20497;-74
2021/07/18 07:15:15;;;;;;;3.45;1.17;;;24.00;83.90;;;;;;4946598;29;20031;-74
2021/07/18 07:17:41;;;;;;;2.70;1.15;;;23.10;84.70;;;;;;4938918;29;20032;-74
2021/07/18 07:20:09;;;;;;;5.05;1.08;;;22.90;84.40;;;;;;4953504;29;20043;-72
2021/07/18 07:22:35;;;;;;;3.78;1.25;;;22.70;84.80;;;;;;4951101;29;20035;-73
2021/07/18 07:25:10;;;;;;;4.88;1.15;;;23.20;84.60;;;;;;4954580;29;20264;-74
2021/07/18 07:27:37;;;;;;;2.92;1.10;;;22.80;85.10;;;;;;4953876;28;20051;-73
2021/07/18 07:30:08;;;;;;;3.70;1.38;;;22.30;87.20;;;;;;4935981;29;20374;-72
2021/07/18 07:32:35;;;;;;;2.85;1.13;;;22.50;86.60;;;;;;4952328;28;20047;-72
2021/07/18 07:35:04;;;;;;;1.85;1.10;;;22.30;87.50;;;;;;4952803;29;20349;-72
2021/07/18 07:37:30;;;;;;;3.00;1.08;;;22.70;86.70;;;;;;4951530;28;20516;-72
2021/07/18 07:39:56;;;;;;;3.72;1.60;;;22.40;85.60;;;;;;4945182;28;20047;-73
2021/07/18 07:42:22;;;;;;;3.40;0.90;;;22.60;85.90;;;;;;4933657;29;20382;-72
2021/07/18 07:44:48;;;;;;;2.20;1.25;;;22.60;85.40;;;;;;4951959;29;20038;-72
2021/07/18 07:47:15;;;;;;;3.15;1.17;;;22.70;85.00;;;;;;4952970;28;20386;-73
2021/07/18 07:49:45;;;;;;;6.22;1.50;;;22.30;86.50;;;;;;4955581;29;20489;-72
2021/07/18 07:52:12;;;;;;;2.53;1.30;;;22.60;85.30;;;;;;4956217;29;20465;-73
2021/07/18 07:54:41;;;;;;;2.55;1.35;;;22.90;84.70;;;;;;4957171;29;20485;-73
2021/07/18 07:57:07;;;;;;;6.65;1.27;;;23.40;84.30;;;;;;4956698;28;20047;-74
2021/07/18 07:59:33;;;;;;;3.40;1.15;;;23.30;83.40;;;;;;4957444;29;20044;-72
2021/07/18 08:02:01;;;;;;;3.90;1.30;;;22.90;84.00;;;;;;4950779;29;20386;-72
2021/07/18 08:04:28;;;;;;;3.00;1.65;;;23.20;83.60;;;;;;4950225;29;20038;-72
2021/07/18 08:06:55;;;;;;;3.00;1.00;;;23.20;83.40;;;;;;4956432;29;20046;-73
2021/07/18 08:09:21;;;;;;;3.33;0.88;;;23.80;82.00;;;;;;4956681;29;20039;-71
2021/07/18 08:11:48;;;;;;;3.10;1.00;;;24.30;82.10;;;;;;4956018;29;20042;-73
2021/07/18 08:14:15;;;;;;;5.35;1.20;;;24.80;79.40;;;;;;4956173;29;20027;-72
2021/07/18 08:16:41;;;;;;;3.40;1.27;;;25.00;76.10;;;;;;4956479;29;20031;-73
2021/07/18 08:19:08;;;;;;;3.25;1.10;;;24.30;76.50;;;;;;4954259;29;20046;-74
2021/07/18 08:21:34;;;;;;;2.65;1.00;;;23.80;78.50;;;;;;4956134;28;20508;-73
2021/07/18 08:24:01;;;;;;;2.47;0.77;;;23.70;79.20;;;;;;4955719;29;20504;-72
2021/07/18 08:26:28;;;;;;;4.53;1.40;;;24.20;77.30;;;;;;4953477;28;20043;-72
2021/07/18 08:28:54;;;;;;;3.00;0.90;;;24.60;77.50;;;;;;4954403;29;20039;-73
2021/07/18 08:31:20;;;;;;;3.78;1.05;;;24.50;77.50;;;;;;4960596;29;20362;-73
2021/07/18 08:33:46;;;;;;;4.53;1.23;;;24.20;77.90;;;;;;4955112;29;20058;-72
2021/07/18 08:36:12;;;;;;;5.10;1.20;;;23.40;80.40;;;;;;4956187;29;20042;-72
2021/07/18 08:38:38;;;;;;;3.45;1.02;;;23.80;79.10;;;;;;4947391;29;20393;-71
2021/07/18 08:41:05;;;;;;;2.30;1.00;;;24.90;75.90;;;;;;4942569;29;20035;-71
2021/07/18 08:43:32;;;;;;;2.67;1.30;;;25.30;75.30;;;;;;4951237;29;20454;-73
2021/07/18 08:45:59;;;;;;;4.90;1.63;;;24.50;76.20;;;;;;4937693;29;20031;-73
2021/07/18 08:48:25;;;;;;;3.13;1.25;;;24.30;76.20;;;;;;4938993;28;20054;-73
2021/07/18 08:50:52;;;;;;;5.38;1.23;;;24.30;77.40;;;;;;4944949;28;20039;-72
2021/07/18 08:53:19;;;;;;;3.05;1.15;;;24.20;78.70;;;;;;4969909;28;20050;-72
2021/07/18 08:55:45;;;;;;;3.38;1.10;;;24.20;77.70;;;;;;4959901;28;20054;-73
2021/07/18 08:58:15;;;;;;;4.47;1.48;;;24.10;79.50;;;;;;4962639;28;20047;-73
2021/07/18 09:00:43;;;;;;;2.72;0.90;;;24.50;77.20;;;;;;4951830;28;20031;-73
2021/07/18 09:03:17;;;;;;;3.42;1.10;;;24.80;76.60;;;;;;4936584;28;20040;-73
2021/07/18 09:05:45;;;;;;;3.22;1.45;;;24.90;75.90;;;;;;4955635;29;20039;-74
2021/07/18 09:08:22;;;;;;;4.95;1.70;;;24.50;77.30;;;;;;4955540;28;20050;-72
2021/07/18 09:10:50;;;;;;;3.88;1.25;;;24.10;78.30;;;;;;4952478;28;20024;-72
2021/07/18 09:13:19;;;;;;;3.88;1.40;;;24.10;79.40;;;;;;4947345;28;20044;-72
2021/07/18 09:15:53;;;;;;;6.97;1.77;;;24.20;78.90;;;;;;4940394;29;20035;-74
2021/07/18 09:18:19;;;;;;;3.20;1.48;;;23.90;78.30;;;;;;4956121;29;20039;-74
2021/07/18 09:20:51;;;;;;;4.40;1.38;;;23.80;77.60;;;;;;4955028;28;20051;-74
2021/07/18 09:23:25;;;;;;;5.68;1.40;;;24.00;78.00;;;;;;4955124;29;20038;-72
2021/07/18 09:26:12;;;;;;;3.63;1.70;;;24.50;78.40;;;;;;4954992;29;20046;-73
2021/07/18 09:28:38;;;;;;;4.47;1.73;;;25.20;75.30;;;;;;4954177;29;20047;-73
2021/07/18 09:31:28;;;;;;;5.47;1.13;;;25.00;77.00;;;;;;4950590;29;20024;-72
2021/07/18 09:34:13;;;;;;;2.72;1.10;;;24.80;79.20;;;;;;4947836;29;20042;-72
2021/07/18 09:36:40;;;;;;;4.13;1.55;;;25.10;76.50;;;;;;4963377;29;20031;-72
2021/07/18 09:39:10;;;;;;;3.05;1.17;;;25.10;74.30;;;;;;4958392;29;20035;-72
2021/07/18 09:41:38;;;;;;;4.88;1.42;;;25.00;74.30;;;;;;4970689;28;20044;-74
2021/07/18 09:44:05;;;;;;;3.38;1.40;;;25.30;72.70;;;;;;4953683;29;20469;-73
2021/07/18 09:46:32;;;;;;;4.38;1.50;;;25.30;74.50;;;;;;4944723;29;20088;-74
2021/07/18 09:49:00;;;;;;;4.07;1.17;;;24.80;75.30;;;;;;4948108;29;20051;-75
2021/07/18 09:51:26;;;;;;;2.90;1.17;;;25.20;73.00;;;;;;4955239;29;20042;-74
2021/07/18 09:54:09;;;;;;;3.17;1.05;;;25.40;73.40;;;;;;4952821;29;20042;-74
2021/07/18 09:56:35;;;;;;;6.10;1.73;;;25.30;73.50;;;;;;4937860;29;20059;-73
2021/07/18 09:59:02;;;;;;;3.80;1.45;;;25.30;73.80;;;;;;4945005;29;20043;-75
2021/07/18 10:01:29;;;;;;;4.53;1.27;;;25.50;73.00;;;;;;4957342;28;20047;-73
2021/07/18 10:03:55;;;;;;;3.88;1.70;;;25.50;73.30;;;;;;4953878;29;20046;-73
2021/07/18 10:06:29;;;;;;;5.38;1.83;;;25.50;70.40;;;;;;4939685;29;20031;-73
2021/07/18 10:09:00;;;;;;;3.55;1.27;;;25.30;71.90;;;;;;4954992;28;20051;-73
2021/07/18 10:11:29;;;;;;;2.38;1.38;;;25.40;71.70;;;;;;4935471;29;20058;-74
2021/07/18 10:13:56;;;;;;;3.08;1.65;;;25.20;71.10;;;;;;4968852;28;20047;-74
2021/07/18 10:16:26;;;;;;;5.20;1.45;;;24.90;72.90;;;;;;4954916;29;20031;-76
2021/07/18 10:18:53;;;;;;;4.63;1.60;;;24.80;73.30;;;;;;4953989;29;20039;-76
2021/07/18 10:21:25;;;;;;;5.05;1.58;;;25.50;71.90;;;;;;4954319;28;20055;-74
2021/07/18 10:23:54;;;;;;;4.20;1.70;;;25.90;71.10;;;;;;4953729;28;20047;-75
2021/07/18 10:26:23;;;;;;;6.45;1.83;;;25.80;70.70;;;;;;4954567;29;20400;-74
2021/07/18 10:28:51;;;;;;;3.55;1.27;;;25.90;70.00;;;;;;4943958;29;20219;-74
2021/07/18 10:31:23;;;;;;;3.47;1.65;;;25.80;69.00;;;;;;4948518;29;20381;-73
2021/07/18 10:33:50;;;;;;;5.57;2.42;;;25.70;69.10;;;;;;4939533;29;20028;-75
2021/07/18 10:36:22;;;;;;;4.22;1.80;;;25.20;67.60;;;;;;4950592;29;20035;-76
2021/07/18 10:38:48;;;;;;;3.38;1.40;;;25.00;68.90;;;;;;4953769;28;20393;-76
2021/07/18 10:41:15;;;;;;;2.47;1.50;;;25.10;67.80;;;;;;4945782;29;20043;-74
2021/07/18 10:43:46;;;;;;;4.22;1.73;;;24.90;68.40;;;;;;4936529;29;20028;-74
2021/07/18 10:46:37;;;;;;;2.85;1.70;;;24.90;67.40;;;;;;4942277;29;20031;-73
2021/07/18 10:49:03;;;;;;;3.33;1.70;;;25.00;68.30;;;;;;4953596;28;20031;-74
2021/07/18 10:51:37;;;;;;;4.20;1.83;;;24.90;67.60;;;;;;4953797;29;20477;-73
2021/07/18 10:54:13;;;;;;;4.53;2.30;;;25.00;67.20;;;;;;4949574;29;20038;-74
2021/07/18 10:56:45;;;;;;;3.13;1.73;;;25.10;66.90;;;;;;4953400;29;20390;-74
2021/07/18 10:59:43;;;;;;;2.45;1.55;;;25.00;68.00;;;;;;4952887;28;20055;-72
2021/07/18 11:02:15;;;;;;;2.97;1.45;;;25.20;66.90;;;;;;4952199;29;20492;-75
2021/07/18 11:04:47;;;;;;;4.72;1.92;;;25.30;66.90;;;;;;4945581;29;20378;-73
2021/07/18 11:07:31;;;;;;;3.65;1.80;;;25.50;67.60;;;;;;4953707;28;20047;-72
2021/07/18 11:10:09;;;;;;;4.07;1.67;;;25.70;67.40;;;;;;4952969;29;20401;-73
2021/07/18 11:12:46;;;;;;;2.42;1.45;;;25.60;65.40;;;;;;4953660;29;20508;-74
2021/07/18 11:15:15;;;;;;;3.10;1.30;;;25.70;65.00;;;;;;4941201;29;20027;-75
2021/07/18 11:18:04;;;;;;;4.10;1.23;;;25.70;64.90;;;;;;4950721;29;20386;-74
2021/07/18 11:20:41;;;;;;;3.50;1.60;;;25.80;64.20;;;;;;4944406;29;20031;-74
2021/07/18 11:23:09;;;;;;;3.33;1.65;;;26.00;64.20;;;;;;4952829;29;20043;-74
2021/07/18 11:25:42;;;;;;;3.58;1.30;;;26.10;64.20;;;;;;4940546;28;20066;-72
2021/07/18 11:31:14;;;;;;;4.40;1.13;;;25.90;64.30;;;;;;4957844;28;20043;-74
2021/07/18 11:33:56;;;;;;;3.38;1.02;;;26.00;64.70;;;;;;4959027;29;20047;-74
2021/07/18 11:36:32;;;;;;;4.25;1.20;;;26.00;63.80;;;;;;4943313;29;20032;-73
2021/07/18 11:39:00;;;;;;;2.80;1.05;;;25.90;65.70;;;;;;4953922;29;20047;-75
2021/07/18 11:41:29;;;;;;;4.18;1.42;;;26.00;66.10;;;;;;4956762;29;20051;-73
2021/07/18 11:44:03;;;;;;;1.40;1.10;;;26.20;64.30;;;;;;4945603;29;20032;-75
2021/07/18 11:46:49;;;;;;;3.00;1.05;;;26.30;63.90;;;;;;4943254;29;20908;-75
2021/07/18 11:49:17;;;;;;;3.15;1.27;;;26.20;64.50;;;;;;4952473;29;20042;-74
2021/07/18 11:51:47;;;;;;;2.95;1.13;;;26.30;63.20;;;;;;4952179;29;20469;-75
2021/07/18 11:54:15;;;;;;;3.72;0.85;;;26.30;62.60;;;;;;4952980;29;20032;-74
2021/07/18 11:56:50;;;;;;;1.40;0.80;;;26.40;63.40;;;;;;4951660;29;20046;-76
2021/07/18 11:59:19;;;;;;;3.92;1.33;;;26.60;61.30;;;;;;4953021;29;20500;-76
2021/07/18 12:01:49;;;;;;;3.00;1.00;;;26.50;62.00;;;;;;4953121;29;20050;-75
2021/07/18 12:04:24;;;;;;;2.78;0.88;;;26.30;62.80;;;;;;4952488;29;20162;-74
2021/07/18 12:06:59;;;;;;;5.47;1.23;;;26.70;62.90;;;;;;4952307;28;20050;-74
2021/07/18 12:09:30;;;;;;;3.70;0.80;;;26.80;62.80;;;;;;4953253;29;20031;-74
2021/07/18 12:11:59;;;;;;;3.65;0.90;;;26.70;60.30;;;;;;4952693;29;20035;-74
2021/07/18 12:14:27;;;;;;;3.60;1.30;;;26.60;61.20;;;;;;4950477;28;20036;-75
2021/07/18 12:16:55;;;;;;;4.20;1.00;;;26.70;62.20;;;;;;4939683;29;20038;-74
2021/07/18 12:19:27;;;;;;;3.40;0.80;;;26.90;60.70;;;;;;4952943;28;20051;-73
2021/07/18 12:21:54;;;;;;;2.08;1.20;;;26.60;61.10;;;;;;4952799;29;20039;-75
2021/07/18 12:24:27;;;;;;;2.90;0.90;;;26.60;61.90;;;;;;4953002;28;20055;-74
2021/07/18 12:26:53;;;;;;;3.95;1.10;;;26.70;61.90;;;;;;4943454;29;20040;-75
2021/07/18 12:29:21;;;;;;;3.33;0.90;;;26.60;62.00;;;;;;4952007;29;20320;-73
2021/07/18 12:31:49;;;;;;;2.90;1.17;;;26.80;62.50;;;;;;4952815;29;20058;-73
2021/07/18 12:34:18;;;;;;;1.83;0.98;;;27.00;62.80;;;;;;4952443;28;20039;-73
2021/07/18 12:37:09;;;;;;;2.72;1.02;;;26.50;61.00;;;;;;4956350;29;20031;-74
2021/07/18 12:39:44;;;;;;;3.00;1.35;;;26.80;60.80;;;;;;4954921;29;20050;-74
2021/07/18 12:42:22;;;;;;;3.08;0.93;;;26.60;61.80;;;;;;4954887;28;20143;-76
2021/07/18 12:44:53;;;;;;;2.45;1.23;;;27.00;61.60;;;;;;4956203;29;20040;-75
2021/07/18 12:47:33;;;;;;;2.47;0.93;;;26.90;61.10;;;;;;4954992;29;20031;-75
2021/07/18 12:50:32;;;;;;;3.00;1.13;;;26.90;61.90;;;;;;4948390;29;20574;-74
2021/07/18 12:53:09;;;;;;;2.90;1.15;;;27.20;62.00;;;;;;4958524;28;20051;-75
2021/07/18 12:55:42;;;;;;;3.00;1.00;;;27.20;62.30;;;;;;4964511;29;20052;-75
2021/07/18 12:58:19;;;;;;;2.25;1.02;;;27.20;61.70;;;;;;4953337;28;20040;-73